Aérodrome :
LOGIN :

S'inscrire | Disclaimer

   EN    FR    IT 

 










Légende :    VFR   VFR Marginal   IFR   IFR Intensif   IFR Très Intensif
Visi : 
Plafond : 
>= 8 km
>= 3000ft
5 à 8 km
1000 à 3000 ft
1500m à 5 km
500 à 1000 ft
800 à 1500m
200 à 500 ft
< 800m
< 200 ft
Symboles :   Orages  Brouillard  Fortes neiges  Fortes précipitations  Vent > 20 kt
SIGMETs :   Divers  Orages  Givrage  Turbulence  Onde Orograph.  Cendres Volcan.






- Altitude de l'aérodrome : 796 ft
- Code IATA : SYT


LFLN - Saint-Yan

DERNIER METAR :
  • 150700Z AUTO 18007KT 140V200 CAVOK 11/06 Q1008 NOSIG

METARs EXPIRÉS :
  • 150630Z AUTO 17009KT CAVOK 11/06 Q1008 NOSIG
  • 150600Z AUTO 17008KT 150V210 9999 FEW047 BKN074 BKN100 11/07 Q1008
  • 150530Z AUTO 16005KT CAVOK 10/07 Q1008
  • 150500Z AUTO VRB03KT 9999 FEW049 BKN076 OVC092 11/07 Q1008
  • 150430Z AUTO 18009KT CAVOK 11/07 Q1007
  • 150400Z AUTO 17007KT CAVOK 11/07 Q1007

TAF TAF LFLN
Valide du 15 à 06h jusqu'au 15 à 15h UTC


150500Z 1506/1515 20005KT CAVOK



MET'MAP, la Météo Aéronautique d'un coup d'oeil ! - Copyright ORBIFLY Décembre 2007 - Disclaimer

ORBIFLY MET'MAP TEAM :

Programmation & Développement : Alexandra Zaïnal
Sur une idée originale de : Baudouin d'Aumeries
Assistance à la programmation : Marc-Olivier Méhu
Soutien technique & logistique : Manuel Goepfert

Contact : metmap@orbifly.com




SOURCES & CREDITS :

   NOAA